Filovent — FU9251 — position and weather

sailwx.info

Track history (hours):
 
Tides and Currents Weather Stations Pressure Air Temp Water Temp Dewpoint Dewpoint Depression Visibility Wind Speed Wind Dir Waves Ship Positions

Filovent

Last reported at 2017-Aug-23 15:55 UTC. Time now 2017-Sep-22 20:50 UTC.
Position N 47°35' W 002°55'.
Warning: this ship's position is 30 days out of date.

Length 13 m.

Type: Pleasure craft. MMSI: 227527130.

Date/timePositionNaut miles runAvg speedWind from/ knotsBaromVisibWave heightAir tempDewpointWater temp
2017-Aug-23 15:55N 47°35' W 002°55'0 0.1
2017-Aug-23 15:30N 47°35' W 002°55'2 4.1
2017-Aug-23 15:00N 47°33' W 002°56'7 1.4
2017-Aug-23 09:52N 47°27' W 003°02'2 4.7
2017-Aug-23 09:30N 47°28' W 002°60'2 4.6
2017-Aug-23 09:00N 47°30' W 002°57'3 5.0
2017-Aug-23 08:30N 47°32' W 002°55'3 5.4
2017-Aug-23 08:00N 47°35' W 002°55'1 0.0
2017-Aug-21 13:12N 47°35' W 002°55'0 0.0
2017-Aug-21 12:57N 47°35' W 002°55'0 0.0
2017-Aug-21 12:30N 47°35' W 002°55'2 3.4
2017-Aug-21 12:00N 47°33' W 002°55'3 5.1
2017-Aug-21 11:29N 47°31' W 002°57'3 4.8
2017-Aug-21 10:53N 47°29' W 002°60'2 5.2
2017-Aug-21 10:25N 47°27' W 003°02'3 4.5
2017-Aug-21 09:51N 47°26' W 003°05'2 3.5
2017-Aug-21 09:13N 47°24' W 003°08'4 0.2
2017-Aug-20 11:50N 47°24' W 003°14'2 4.8
2017-Aug-20 11:30N 47°25' W 003°15'2 4.4
2017-Aug-20 11:00N 47°27' W 003°17'2 4.0
2017-Aug-20 10:30N 47°29' W 003°19'2 3.8
2017-Aug-20 10:00N 47°31' W 003°19'2 4.0
2017-Aug-20 09:30N 47°33' W 003°20'2 4.2
2017-Aug-20 09:00N 47°35' W 003°21'2 4.3
2017-Aug-20 08:30N 47°37' W 003°21'2 4.4
2017-Aug-20 08:00N 47°39' W 003°22'2 4.1
2017-Aug-20 07:30N 47°41' W 003°22'2 3.5
2017-Aug-20 07:00N 47°43' W 003°22'0 0.6
2017-Aug-20 06:28N 47°43' W 003°21'0 0.0
2017-Aug-20 05:58N 47°43' W 003°21'0 0.0
2017-Aug-20 05:28N 47°43' W 003°21'0 0.0
2017-Aug-20 04:58N 47°43' W 003°21'0 0.0
2017-Aug-20 04:28N 47°43' W 003°21'0 0.0
2017-Aug-20 03:58N 47°43' W 003°21'0 0.0
2017-Aug-20 03:28N 47°43' W 003°21'0 0.0
2017-Aug-20 02:58N 47°43' W 003°21'0 0.0
2017-Aug-20 02:28N 47°43' W 003°21'0 0.0
2017-Aug-20 01:58N 47°43' W 003°21'0 0.0
2017-Aug-20 01:28N 47°43' W 003°21'0 0.0
2017-Aug-20 00:58N 47°43' W 003°21'0 0.0
2017-Aug-20 00:28N 47°43' W 003°21'0 0.0
2017-Aug-19 23:58N 47°43' W 003°21'0 0.0
2017-Aug-19 23:29N 47°43' W 003°21'0 0.0
2017-Aug-19 22:59N 47°43' W 003°21'0 0.0
2017-Aug-19 22:29N 47°43' W 003°21'0 0.0
2017-Aug-19 21:58N 47°43' W 003°21'0 0.0
2017-Aug-19 21:29N 47°43' W 003°21'0 0.0
2017-Aug-19 20:58N 47°43' W 003°21'0 0.0
2017-Aug-19 20:28N 47°43' W 003°21'0 0.0
2017-Aug-19 19:58N 47°43' W 003°21'0 0.0
2017-Aug-19 19:28N 47°43' W 003°21'0 0.0
2017-Aug-19 18:58N 47°43' W 003°21'0 0.0
2017-Aug-19 18:28N 47°43' W 003°21'0 0.0
2017-Aug-19 17:58N 47°43' W 003°21'0 0.0
2017-Aug-19 17:28N 47°43' W 003°21'0 0.0
2017-Aug-19 16:58N 47°43' W 003°21'0 0.0
2017-Aug-19 16:28N 47°43' W 003°21'0 0.0
2017-Aug-19 15:55N 47°43' W 003°21'0 0.0
2017-Aug-19 15:28N 47°43' W 003°21'0 0.0
2017-Aug-19 14:58N 47°43' W 003°21'0 0.0
2017-Aug-19 13:58N 47°43' W 003°21'0 0.0
2017-Aug-19 13:28N 47°43' W 003°21'0 0.0
2017-Aug-19 12:58N 47°43' W 003°21'0 0.0
2017-Aug-19 12:28N 47°43' W 003°21'0 0.0
2017-Aug-19 11:58N 47°43' W 003°21'0 0.0
2017-Aug-19 11:28N 47°43' W 003°21'0 0.0
2017-Aug-19 10:58N 47°43' W 003°21'0 0.0
2017-Aug-19 10:28N 47°43' W 003°21'0 0.0
2017-Aug-19 09:58N 47°43' W 003°21'0 0.0
2017-Aug-19 09:28N 47°43' W 003°21'0 0.0
2017-Aug-19 08:58N 47°43' W 003°21'0 0.0
2017-Aug-19 08:28N 47°43' W 003°21'0 0.0
2017-Aug-19 07:55N 47°43' W 003°21'0 0.0
2017-Aug-19 07:28N 47°43' W 003°21'0 0.0
2017-Aug-19 06:58N 47°43' W 003°21'0 0.0
2017-Aug-19 06:28N 47°43' W 003°21'0 0.0
2017-Aug-19 05:58N 47°43' W 003°21'0 0.0
2017-Aug-19 05:28N 47°43' W 003°21'0 0.0
2017-Aug-19 04:58N 47°43' W 003°21'0 0.0
2017-Aug-19 04:28N 47°43' W 003°21'0 0.0
2017-Aug-19 03:58N 47°43' W 003°21'0 0.0
2017-Aug-19 03:28N 47°43' W 003°21'0 0.0
2017-Aug-19 02:58N 47°43' W 003°21'0 0.0
2017-Aug-19 02:28N 47°43' W 003°21'0 0.0
2017-Aug-19 01:58N 47°43' W 003°21'0 0.0
2017-Aug-19 01:28N 47°43' W 003°21'0 0.0
2017-Aug-19 00:58N 47°43' W 003°21'0 0.0
2017-Aug-19 00:28N 47°43' W 003°21'0 0.0
2017-Aug-18 23:58N 47°43' W 003°21'0 0.0
2017-Aug-18 23:28N 47°43' W 003°21'0 0.0
2017-Aug-18 22:58N 47°43' W 003°21'0 0.0
2017-Aug-18 22:25N 47°43' W 003°21'0 0.0
2017-Aug-18 21:58N 47°43' W 003°21'0 0.0
2017-Aug-18 21:28N 47°43' W 003°21'0 0.0
2017-Aug-18 20:58N 47°43' W 003°21'0 0.0
2017-Aug-18 20:28N 47°43' W 003°21'0 0.0
2017-Aug-18 19:58N 47°43' W 003°21'0 0.0
2017-Aug-18 19:28N 47°43' W 003°21'0 0.0
2017-Aug-18 18:59N 47°43' W 003°21'0 0.0
2017-Aug-18 18:29N 47°43' W 003°21'0 0.0
2017-Aug-18 17:59N 47°43' W 003°21'0 0.0
2017-Aug-18 17:29N 47°43' W 003°21'0 0.0
2017-Aug-18 16:59N 47°43' W 003°21'0 0.0
2017-Aug-18 16:29N 47°43' W 003°21'0 0.0
2017-Aug-18 15:59N 47°43' W 003°21'0 0.0
2017-Aug-18 15:29N 47°43' W 003°21'0 0.0
2017-Aug-18 14:56N 47°43' W 003°21'0 0.0
2017-Aug-18 14:29N 47°43' W 003°21'0 0.3
2017-Aug-18 13:30N 47°43' W 003°22'2 4.9
2017-Aug-18 13:00N 47°41' W 003°24'  
Track history (hours):
 
Tides and Currents Weather Stations Pressure Air Temp Water Temp Dewpoint Dewpoint Depression Visibility Wind Speed Wind Dir Waves Ship Positions

Filovent

Last reported at 2017-Aug-23 15:55 UTC. Time now 2017-Sep-22 20:50 UTC.
Position N 47°35' W 002°55'.
Warning: this ship's position is 30 days out of date.

Length 13 m.

Type: Pleasure craft. MMSI: 227527130.

Date/timePositionNaut miles runAvg speedWind from/ knotsBaromVisibWave heightAir tempDewpointWater temp
2017-Aug-23 15:55N 47°35' W 002°55'0 0.1
2017-Aug-23 15:30N 47°35' W 002°55'2 4.1
2017-Aug-23 15:00N 47°33' W 002°56'7 1.4
2017-Aug-23 09:52N 47°27' W 003°02'2 4.7
2017-Aug-23 09:30N 47°28' W 002°60'2 4.6
2017-Aug-23 09:00N 47°30' W 002°57'3 5.0
2017-Aug-23 08:30N 47°32' W 002°55'3 5.4
2017-Aug-23 08:00N 47°35' W 002°55'1 0.0
2017-Aug-21 13:12N 47°35' W 002°55'0 0.0
2017-Aug-21 12:57N 47°35' W 002°55'0 0.0
2017-Aug-21 12:30N 47°35' W 002°55'2 3.4
2017-Aug-21 12:00N 47°33' W 002°55'3 5.1
2017-Aug-21 11:29N 47°31' W 002°57'3 4.8
2017-Aug-21 10:53N 47°29' W 002°60'2 5.2
2017-Aug-21 10:25N 47°27' W 003°02'3 4.5
2017-Aug-21 09:51N 47°26' W 003°05'2 3.5
2017-Aug-21 09:13N 47°24' W 003°08'4 0.2
2017-Aug-20 11:50N 47°24' W 003°14'2 4.8
2017-Aug-20 11:30N 47°25' W 003°15'2 4.4
2017-Aug-20 11:00N 47°27' W 003°17'2 4.0
2017-Aug-20 10:30N 47°29' W 003°19'2 3.8
2017-Aug-20 10:00N 47°31' W 003°19'2 4.0
2017-Aug-20 09:30N 47°33' W 003°20'2 4.2
2017-Aug-20 09:00N 47°35' W 003°21'2 4.3
2017-Aug-20 08:30N 47°37' W 003°21'2 4.4
2017-Aug-20 08:00N 47°39' W 003°22'2 4.1
2017-Aug-20 07:30N 47°41' W 003°22'2 3.5
2017-Aug-20 07:00N 47°43' W 003°22'0 0.6
2017-Aug-20 06:28N 47°43' W 003°21'0 0.0
2017-Aug-20 05:58N 47°43' W 003°21'0 0.0
2017-Aug-20 05:28N 47°43' W 003°21'0 0.0
2017-Aug-20 04:58N 47°43' W 003°21'0 0.0
2017-Aug-20 04:28N 47°43' W 003°21'0 0.0
2017-Aug-20 03:58N 47°43' W 003°21'0 0.0
2017-Aug-20 03:28N 47°43' W 003°21'0 0.0
2017-Aug-20 02:58N 47°43' W 003°21'0 0.0
2017-Aug-20 02:28N 47°43' W 003°21'0 0.0
2017-Aug-20 01:58N 47°43' W 003°21'0 0.0
2017-Aug-20 01:28N 47°43' W 003°21'0 0.0
2017-Aug-20 00:58N 47°43' W 003°21'0 0.0
2017-Aug-20 00:28N 47°43' W 003°21'0 0.0
2017-Aug-19 23:58N 47°43' W 003°21'0 0.0
2017-Aug-19 23:29N 47°43' W 003°21'0 0.0
2017-Aug-19 22:59N 47°43' W 003°21'0 0.0
2017-Aug-19 22:29N 47°43' W 003°21'0 0.0
2017-Aug-19 21:58N 47°43' W 003°21'0 0.0
2017-Aug-19 21:29N 47°43' W 003°21'0 0.0
2017-Aug-19 20:58N 47°43' W 003°21'0 0.0
2017-Aug-19 20:28N 47°43' W 003°21'0 0.0
2017-Aug-19 19:58N 47°43' W 003°21'0 0.0
2017-Aug-19 19:28N 47°43' W 003°21'0 0.0
2017-Aug-19 18:58N 47°43' W 003°21'0 0.0
2017-Aug-19 18:28N 47°43' W 003°21'0 0.0
2017-Aug-19 17:58N 47°43' W 003°21'0 0.0
2017-Aug-19 17:28N 47°43' W 003°21'0 0.0
2017-Aug-19 16:58N 47°43' W 003°21'0 0.0
2017-Aug-19 16:28N 47°43' W 003°21'0 0.0
2017-Aug-19 15:55N 47°43' W 003°21'0 0.0
2017-Aug-19 15:28N 47°43' W 003°21'0 0.0
2017-Aug-19 14:58N 47°43' W 003°21'0 0.0
2017-Aug-19 13:58N 47°43' W 003°21'0 0.0
2017-Aug-19 13:28N 47°43' W 003°21'0 0.0
2017-Aug-19 12:58N 47°43' W 003°21'0 0.0
2017-Aug-19 12:28N 47°43' W 003°21'0 0.0
2017-Aug-19 11:58N 47°43' W 003°21'0 0.0
2017-Aug-19 11:28N 47°43' W 003°21'0 0.0
2017-Aug-19 10:58N 47°43' W 003°21'0 0.0
2017-Aug-19 10:28N 47°43' W 003°21'0 0.0
2017-Aug-19 09:58N 47°43' W 003°21'0 0.0
2017-Aug-19 09:28N 47°43' W 003°21'0 0.0
2017-Aug-19 08:58N 47°43' W 003°21'0 0.0
2017-Aug-19 08:28N 47°43' W 003°21'0 0.0
2017-Aug-19 07:55N 47°43' W 003°21'0 0.0
2017-Aug-19 07:28N 47°43' W 003°21'0 0.0
2017-Aug-19 06:58N 47°43' W 003°21'0 0.0
2017-Aug-19 06:28N 47°43' W 003°21'0 0.0
2017-Aug-19 05:58N 47°43' W 003°21'0 0.0
2017-Aug-19 05:28N 47°43' W 003°21'0 0.0
2017-Aug-19 04:58N 47°43' W 003°21'0 0.0
2017-Aug-19 04:28N 47°43' W 003°21'0 0.0
2017-Aug-19 03:58N 47°43' W 003°21'0 0.0
2017-Aug-19 03:28N 47°43' W 003°21'0 0.0
2017-Aug-19 02:58N 47°43' W 003°21'0 0.0
2017-Aug-19 02:28N 47°43' W 003°21'0 0.0
2017-Aug-19 01:58N 47°43' W 003°21'0 0.0
2017-Aug-19 01:28N 47°43' W 003°21'0 0.0
2017-Aug-19 00:58N 47°43' W 003°21'0 0.0
2017-Aug-19 00:28N 47°43' W 003°21'0 0.0
2017-Aug-18 23:58N 47°43' W 003°21'0 0.0
2017-Aug-18 23:28N 47°43' W 003°21'0 0.0
2017-Aug-18 22:58N 47°43' W 003°21'0 0.0
2017-Aug-18 22:25N 47°43' W 003°21'0 0.0
2017-Aug-18 21:58N 47°43' W 003°21'0 0.0
2017-Aug-18 21:28N 47°43' W 003°21'0 0.0
2017-Aug-18 20:58N 47°43' W 003°21'0 0.0
2017-Aug-18 20:28N 47°43' W 003°21'0 0.0
2017-Aug-18 19:58N 47°43' W 003°21'0 0.0
2017-Aug-18 19:28N 47°43' W 003°21'0 0.0
2017-Aug-18 18:59N 47°43' W 003°21'0 0.0
2017-Aug-18 18:29N 47°43' W 003°21'0 0.0
2017-Aug-18 17:59N 47°43' W 003°21'0 0.0
2017-Aug-18 17:29N 47°43' W 003°21'0 0.0
2017-Aug-18 16:59N 47°43' W 003°21'0 0.0
2017-Aug-18 16:29N 47°43' W 003°21'0 0.0
2017-Aug-18 15:59N 47°43' W 003°21'0 0.0
2017-Aug-18 15:29N 47°43' W 003°21'0 0.0
2017-Aug-18 14:56N 47°43' W 003°21'0 0.0
2017-Aug-18 14:29N 47°43' W 003°21'0 0.3
2017-Aug-18 13:30N 47°43' W 003°22'2 4.9
2017-Aug-18 13:00N 47°41' W 003°24'  

Dump ship's entire track history